Flight Track Log - Related Links

Times and Time Zones

All times are in EDT time to prevent confusion due to time zone crossing. See the PDT4606 flight status page for this flight to view local times or setup timezone preferences in your user account.

Time Position Orientation Groundspeed Altitude Reporting Facility
EDT Latitude Longitude Course Direction KTS MPH feet Rate Location/Type
Mon 03:05:21 PM 37.1228 -76.5036 38° Northeast 123 142 700  Level Washington Center
Mon 03:05:57 PM 37.1100 -76.5242 232° Southwest 124 143 1,700 1,588 Climbing Washington Center
Mon 03:07:00 PM 37.2607 -76.3305 44° Northeast  Level FlightAware Approximate
Mon 03:07:03 PM 37.1350 -76.5403 333° Northwest 131 151 3,400  Level Washington Center
Mon 03:07:49 PM 37.1539 -76.5014 59° Northeast 165 190 3,900 1,500 Climbing Washington Center
Mon 03:08:00 PM 37.3062 -76.2759 44° Northeast  Level FlightAware Approximate
Mon 03:08:59 PM 37.1836 -76.4442 57° Northeast 158 182 6,300  Level Washington Center
Mon 03:09:00 PM 37.3517 -76.2213 44° Northeast  Level FlightAware Approximate
Mon 03:09:50 PM 37.2006 -76.4003 64° Northeast 160 184 7,500  Level Washington Center
Mon 03:10:00 PM 37.4020 -76.1813 38° Northeast  Level FlightAware Approximate
Mon 03:10:06 PM 37.2069 -76.3897 53° Northeast 167 192 7,900  Level Washington Center
Mon 03:10:48 PM 37.2217 -76.3508 65° Northeast 160 184 9,000 1,500 Climbing Washington Center
Mon 03:11:06 PM 37.2281 -76.3378 58° Northeast 167 192 9,400 1,100 Climbing Washington Center
Mon 03:11:48 PM 37.2472 -76.2858 65° Northeast 174 200 10,100 1,100 Climbing Washington Center
Mon 03:12:06 PM 37.2514 -76.2756 63° Northeast 188 216 10,500 984 Climbing Washington Center
Mon 03:12:49 PM 37.2747 -76.2364 53° Northeast 205 236 11,100 932 Climbing Washington Center
Mon 03:13:49 PM 37.3247 -76.1978 32° Northeast 200 230 12,100 992 Climbing Washington Center
Mon 03:14:50 PM 37.3731 -76.1564 34° Northeast 200 230 13,100 958 Climbing Washington Center
Mon 03:15:48 PM 37.4169 -76.1225 32° Northeast 200 230 14,000 958 Climbing Washington Center
Mon 03:16:49 PM 37.4608 -76.0864 33° Northeast 200 230 15,000 885 Climbing Washington Center
Mon 03:17:50 PM 37.5111 -76.0500 30° Northeast 195 224 15,800 807 Climbing Washington Center
Mon 03:18:48 PM 37.5592 -76.0111 33° Northeast 195 224 16,600 610 Climbing Washington Center
Mon 03:19:48 PM 37.6117 -75.9589 38° Northeast 205 236 17,000 198 Climbing Washington Center
Mon 03:20:49 PM 37.6661 -75.8989 41° Northeast 238 274 17,000  Level Washington Center
Mon 03:21:49 PM 37.7267 -75.8333 41° Northeast 263 303 17,000  Level Washington Center
Mon 03:22:50 PM 37.7892 -75.7678 40° Northeast 276 318 17,000  Level Washington Center
Mon 03:23:48 PM 37.8497 -75.6997 42° Northeast 281 323 17,000  Level Washington Center
Mon 03:24:48 PM 37.9125 -75.6311 41° Northeast 287 330 17,000  Level Washington Center
Mon 03:25:49 PM 37.9750 -75.5681 38° Northeast 287 330 17,000  Level Washington Center
Mon 03:26:50 PM 38.0333 -75.4969 44° Northeast 287 330 17,000 -303 Level Washington Center
Mon 03:27:48 PM 38.1022 -75.4386 34° Northeast 287 330 16,400 -706 Descending Washington Center
Mon 03:28:49 PM 38.1792 -75.3964 23° Northeast 292 336 15,600 -787 Descending Washington Center
Mon 03:29:50 PM 38.2542 -75.3431 29° Northeast 297 342 14,800 -787 Descending Washington Center
Mon 03:30:51 PM 38.3333 -75.2872 29° Northeast 309 356 14,000 -814 Descending Washington Center
Mon 03:31:48 PM 38.4103 -75.2447 23° Northeast 304 350 13,200 -814 Descending Washington Center
Mon 03:32:49 PM 38.4853 -75.1911 29° Northeast 304 350 12,400 -793 Descending Washington Center
Mon 03:33:49 PM 38.5600 -75.1378 29° Northeast 299 344 11,600 -694 Descending Washington Center
Mon 03:34:50 PM 38.6350 -75.1000 21° North 299 344 11,000 -303 Descending Washington Center
Mon 03:35:48 PM 38.7036 -75.0650 22° Northeast 287 330 11,000  Level Washington Center
Mon 03:36:49 PM 38.7681 -75.0244 26° Northeast 265 305 11,000 -197 Level Washington Center
Mon 03:37:50 PM 38.8325 -74.9761 30° Northeast 259 298 10,600 -595 Descending Washington Center
Mon 03:38:50 PM 38.8989 -74.9300 28° Northeast 259 298 9,800 -814 Descending Washington Center
Mon 03:39:48 PM 38.9675 -74.8867 26° Northeast 266 306 9,000 -844 Descending Washington Center
Mon 03:40:58 PM 39.0483 -74.8353 26° Northeast 267 307 8,000 -787 Descending Washington Center
Mon 03:41:50 PM 39.0983 -74.8053 25° Northeast 261 300 7,400 -600 Descending Washington Center
Mon 03:42:48 PM 39.1631 -74.8261 346° North 235 270 6,900 -504 Descending Washington Center
Mon 03:43:49 PM 39.2236 -74.8494 343° North 229 264 6,400 -744 Descending Washington Center
Mon 03:44:49 PM 39.2842 -74.8703 345° North 229 264 5,400 -992 Descending Washington Center
Mon 03:45:50 PM 39.3447 -74.8964 342° North 229 264 4,400 -756 Descending Washington Center
Mon 03:46:48 PM 39.4053 -74.9175 345° North 229 264 3,900 -186 Descending Washington Center
Mon 03:47:59 PM 39.4667 -74.9500 338° Northwest 204 235 4,000  Climbing Philadelphia TRACON
Mon 03:48:59 PM 39.5333 -74.9833 339° North 204 235 3,900 -50 Descending Philadelphia TRACON
Mon 03:49:59 PM 39.5667 -75.0167 322° Northwest 201 231 3,900 50 Level Philadelphia TRACON
Mon 03:50:59 PM 39.6167 -75.0667 322° Northwest 203 234 4,000 -248 Climbing Philadelphia TRACON
Mon 03:52:00 PM 39.6500 -75.1000 322° Northwest 179 206 3,400 -650 Descending Philadelphia TRACON
Mon 03:52:59 PM 39.7000 -75.1333 333° Northwest 175 201 2,700 -655 Descending Philadelphia TRACON
Mon 03:53:59 PM 39.7333 -75.1667 322° Northwest 173 199 2,100 -600 Descending Philadelphia TRACON
Mon 03:54:59 PM 39.7833 -75.1833 346° North 188 216 1,500 -397 Descending Philadelphia TRACON
Mon 03:56:00 PM 39.8333 -75.2000 346° North 155 178 1,300 -197 Descending Philadelphia TRACON

Login

Don't have an account? Register now (free) for customized features, flight alerts, and more!